Time;durP1;ratioP1;P1;durP2;ratioP2;P2;SDS_P1;SDS_P2;PMS_P1;PMS_P2;Temp;Humidity;BMP_temperature;BMP_pressure;BME280_temperature;BME280_humidity;BME280_pressure;Samples;Min_cycle;Max_cycle;Signal;HPM_P1;HPM_P2
2021/07/15 00:01:06;;;;;;;2.20;0.70;;;;;;;;;;5080697;28;20114;-84
2021/07/15 00:03:33;;;;;;;5.93;0.80;;;;;;;;;;5078880;28;20048;-86
2021/07/15 00:06:00;;;;;;;6.22;0.75;;;;;;;;;;5076917;28;20066;-85
2021/07/15 00:08:27;;;;;;;3.65;0.77;;;;;;;;;;5078452;28;20105;-85
2021/07/15 00:10:58;;;;;;;11.07;1.25;;;;;;;;;;5079652;28;20056;-85
2021/07/15 00:13:25;;;;;;;5.88;1.30;;;;;;;;;;5078272;28;20223;-85
2021/07/15 00:15:56;;;;;;;5.20;1.15;;;;;;;;;;5078977;28;20108;-85
2021/07/15 00:18:25;;;;;;;1.48;0.80;;;;;;;;;;5080844;28;20048;-85
2021/07/15 00:20:52;;;;;;;9.32;1.50;;;;;;;;;;5079358;28;20074;-85
2021/07/15 00:23:19;;;;;;;3.95;1.27;;;;;;;;;;5076750;28;20048;-85
2021/07/15 00:25:47;;;;;;;6.15;1.20;;;;;;;;;;5078011;28;20048;-85
2021/07/15 00:28:15;;;;;;;9.88;1.50;;;;;;;;;;5078100;28;20056;-85
2021/07/15 00:30:42;;;;;;;3.63;1.13;;;;;;;;;;5078913;28;20133;-85
2021/07/15 00:33:09;;;;;;;5.25;0.80;;;;;;;;;;5078324;28;20071;-85
2021/07/15 00:35:36;;;;;;;5.03;0.90;;;;;;;;;;5077895;28;20070;-85
2021/07/15 00:38:03;;;;;;;3.35;1.02;;;;;;;;;;5077720;28;20058;-86
2021/07/15 00:40:30;;;;;;;2.47;0.65;;;;;;;;;;5062712;28;20488;-86
2021/07/15 00:42:57;;;;;;;3.47;0.80;;;;;;;;;;5072682;28;20055;-85
2021/07/15 00:45:26;;;;;;;2.45;0.90;;;;;;;;;;5068044;28;20052;-86
2021/07/15 00:47:54;;;;;;;3.47;0.93;;;;;;;;;;5067870;28;20322;-86
2021/07/15 00:50:21;;;;;;;8.05;1.13;;;;;;;;;;5057998;28;20052;-85
2021/07/15 00:52:54;;;;;;;4.75;0.90;;;;;;;;;;5057680;28;20071;-86
2021/07/15 00:55:22;;;;;;;3.47;0.70;;;;;;;;;;5055844;28;20049;-86
2021/07/15 00:57:52;;;;;;;4.40;0.70;;;;;;;;;;5056421;28;20088;-86
2021/07/15 01:00:22;;;;;;;4.20;0.82;;;;;;;;;;5055529;28;20413;-86
2021/07/15 01:02:53;;;;;;;3.10;0.80;;;;;;;;;;5055652;28;20071;-86
2021/07/15 01:05:25;;;;;;;6.82;0.88;;;;;;;;;;5067170;28;20071;-86
2021/07/15 01:07:52;;;;;;;3.22;0.90;;;;;;;;;;5077420;28;20049;-86
2021/07/15 01:10:20;;;;;;;2.28;0.90;;;;;;;;;;5078967;28;20477;-85
2021/07/15 01:12:58;;;;;;;2.22;0.80;;;;;;;;;;5080183;28;20219;-86
2021/07/15 01:15:29;;;;;;;4.30;0.60;;;;;;;;;;5081181;28;20123;-86
2021/07/15 01:17:56;;;;;;;7.28;1.17;;;;;;;;;;5080518;28;20484;-86
2021/07/15 01:20:37;;;;;;;2.25;0.95;;;;;;;;;;5081540;28;20080;-86
2021/07/15 01:23:22;;;;;;;4.35;1.00;;;;;;;;;;5087251;28;20043;-86
2021/07/15 01:26:07;;;;;;;5.65;1.08;;;;;;;;;;5091532;28;20108;-86
2021/07/15 01:28:52;;;;;;;2.50;0.73;;;;;;;;;;5084507;28;20060;-87
2021/07/15 01:31:19;;;;;;;5.85;1.45;;;;;;;;;;5080090;28;20080;-86
2021/07/15 01:33:47;;;;;;;6.63;1.33;;;;;;;;;;5079061;28;20053;-86
2021/07/15 01:36:19;;;;;;;4.03;1.17;;;;;;;;;;5080594;28;20109;-86
2021/07/15 01:38:49;;;;;;;3.80;1.30;;;;;;;;;;5083653;28;20084;-86
2021/07/15 01:41:24;;;;;;;2.95;0.98;;;;;;;;;;5081309;28;20053;-86
2021/07/15 01:43:56;;;;;;;5.32;1.23;;;;;;;;;;5084411;28;20123;-86
2021/07/15 01:46:23;;;;;;;4.40;1.25;;;;;;;;;;5083604;28;20222;-86
2021/07/15 01:48:53;;;;;;;7.00;1.40;;;;;;;;;;5085158;28;20052;-86
2021/07/15 01:51:22;;;;;;;2.03;1.55;;;;;;;;;;5085705;28;20075;-85
2021/07/15 01:53:50;;;;;;;3.88;1.67;;;;;;;;;;5083475;28;20104;-85
2021/07/15 01:56:17;;;;;;;6.43;1.42;;;;;;;;;;5082709;28;20078;-85
2021/07/15 01:58:45;;;;;;;4.13;1.20;;;;;;;;;;5083208;28;20076;-85
2021/07/15 02:01:12;;;;;;;4.35;1.45;;;;;;;;;;5083984;28;20101;-84
2021/07/15 02:03:41;;;;;;;2.70;1.20;;;;;;;;;;5082324;28;20048;-85
2021/07/15 02:06:18;;;;;;;11.65;1.90;;;;;;;;;;5085515;28;20344;-85
2021/07/15 02:08:46;;;;;;;5.13;1.80;;;;;;;;;;5084931;28;20131;-85
2021/07/15 02:11:13;;;;;;;5.00;1.27;;;;;;;;;;5083181;28;20044;-85
2021/07/15 02:13:41;;;;;;;7.53;1.88;;;;;;;;;;5084563;28;20330;-85
2021/07/15 02:16:08;;;;;;;6.25;1.60;;;;;;;;;;5084725;28;20076;-85
2021/07/15 02:18:36;;;;;;;3.83;1.95;;;;;;;;;;5084568;28;20289;-85
2021/07/15 02:21:03;;;;;;;6.32;1.77;;;;;;;;;;5081965;28;20113;-86
2021/07/15 02:23:31;;;;;;;8.90;1.70;;;;;;;;;;5082778;28;20123;-85
2021/07/15 02:25:58;;;;;;;2.65;1.65;;;;;;;;;;5083424;28;20133;-86
2021/07/15 02:28:27;;;;;;;7.45;2.17;;;;;;;;;;5081554;28;20072;-85
2021/07/15 02:31:00;;;;;;;5.15;2.53;;;;;;;;;;5082441;28;20051;-86
2021/07/15 02:33:28;;;;;;;2.65;2.15;;;;;;;;;;5081239;28;20053;-85
2021/07/15 02:35:57;;;;;;;11.80;2.20;;;;;;;;;;5082315;28;20064;-86
2021/07/15 02:38:24;;;;;;;4.28;2.28;;;;;;;;;;5083688;28;20048;-86
2021/07/15 02:40:51;;;;;;;6.97;2.30;;;;;;;;;;5081440;28;20086;-86
2021/07/15 02:43:18;;;;;;;9.93;2.53;;;;;;;;;;5082775;28;20049;-86
2021/07/15 02:45:45;;;;;;;6.43;2.33;;;;;;;;;;5084623;28;20084;-85
2021/07/15 02:48:14;;;;;;;7.57;2.47;;;;;;;;;;5081717;28;20484;-85
2021/07/15 02:50:41;;;;;;;8.85;3.30;;;;;;;;;;5081777;28;20439;-86
2021/07/15 02:53:08;;;;;;;3.60;2.70;;;;;;;;;;5083997;28;20048;-85
2021/07/15 02:55:34;;;;;;;15.80;3.22;;;;;;;;;;5082351;28;20502;-86
2021/07/15 02:58:08;;;;;;;10.73;3.88;;;;;;;;;;5083861;28;20049;-85
2021/07/15 03:00:37;;;;;;;8.63;3.08;;;;;;;;;;5082084;28;20048;-85
2021/07/15 03:03:15;;;;;;;9.85;3.53;;;;;;;;;;5082371;28;20041;-85
2021/07/15 03:06:01;;;;;;;9.60;3.03;;;;;;;;;;5081072;28;20080;-86
2021/07/15 03:08:31;;;;;;;8.63;3.05;;;;;;;;;;5082712;28;20044;-86
2021/07/15 03:10:58;;;;;;;10.88;3.13;;;;;;;;;;5081101;28;20300;-86
2021/07/15 03:13:25;;;;;;;8.82;2.72;;;;;;;;;;5082193;28;20110;-85
2021/07/15 03:15:52;;;;;;;13.60;3.67;;;;;;;;;;5080245;28;20044;-85
2021/07/15 03:18:20;;;;;;;11.35;2.75;;;;;;;;;;5079031;28;20090;-84
2021/07/15 03:20:47;;;;;;;11.32;3.45;;;;;;;;;;5080159;28;20355;-86
2021/07/15 03:23:17;;;;;;;11.63;3.40;;;;;;;;;;5081415;28;20045;-87
2021/07/15 03:25:48;;;;;;;14.00;3.90;;;;;;;;;;5079154;28;20048;-85
2021/07/15 03:28:17;;;;;;;10.13;3.55;;;;;;;;;;5079630;28;20079;-85
2021/07/15 03:30:44;;;;;;;14.00;4.00;;;;;;;;;;5079530;28;20139;-86
2021/07/15 03:33:12;;;;;;;9.07;3.15;;;;;;;;;;5100276;28;20071;-85
2021/07/15 03:35:42;;;;;;;11.40;3.00;;;;;;;;;;5088752;28;20052;-85
2021/07/15 03:38:10;;;;;;;9.32;3.00;;;;;;;;;;5080640;28;20040;-85
2021/07/15 03:40:37;;;;;;;8.57;2.92;;;;;;;;;;5081401;28;20052;-87
2021/07/15 03:43:07;;;;;;;7.03;3.13;;;;;;;;;;5081523;28;20452;-85
2021/07/15 03:45:33;;;;;;;5.43;3.10;;;;;;;;;;5081063;28;20048;-85
2021/07/15 03:48:01;;;;;;;7.72;4.15;;;;;;;;;;5079422;28;20058;-84
2021/07/15 03:50:30;;;;;;;13.27;4.22;;;;;;;;;;5079159;28;20059;-85
2021/07/15 03:52:57;;;;;;;12.57;3.47;;;;;;;;;;5078886;28;20108;-85
2021/07/15 03:55:26;;;;;;;9.25;3.75;;;;;;;;;;5078530;28;20048;-86
2021/07/15 03:57:56;;;;;;;7.03;4.03;;;;;;;;;;5079643;28;20048;-86
2021/07/15 04:00:24;;;;;;;12.07;4.07;;;;;;;;;;5078989;28;20197;-86
2021/07/15 04:02:53;;;;;;;7.75;3.40;;;;;;;;;;5080687;28;20048;-86
2021/07/15 04:05:24;;;;;;;13.05;3.75;;;;;;;;;;5071901;28;20455;-85
2021/07/15 04:07:53;;;;;;;8.80;3.63;;;;;;;;;;5059025;28;20053;-86
2021/07/15 04:10:20;;;;;;;12.43;3.67;;;;;;;;;;5057432;28;20428;-85
2021/07/15 04:12:47;;;;;;;9.52;2.92;;;;;;;;;;5057820;28;20105;-86
2021/07/15 04:15:18;;;;;;;11.68;3.22;;;;;;;;;;5058880;28;20238;-86
2021/07/15 04:17:57;;;;;;;14.43;3.10;;;;;;;;;;5079696;28;20102;-86
2021/07/15 04:20:24;;;;;;;18.58;3.65;;;;;;;;;;5076614;28;20044;-85
2021/07/15 04:22:56;;;;;;;16.02;3.38;;;;;;;;;;5076786;28;20045;-85
2021/07/15 04:25:24;;;;;;;9.90;3.22;;;;;;;;;;5077666;28;20147;-86
2021/07/15 04:27:53;;;;;;;11.75;3.20;;;;;;;;;;5079240;28;20083;-84
2021/07/15 04:30:20;;;;;;;15.65;3.22;;;;;;;;;;5077292;28;20048;-85
2021/07/15 04:32:47;;;;;;;8.25;3.10;;;;;;;;;;5077054;28;20059;-85
2021/07/15 04:35:20;;;;;;;11.85;2.90;;;;;;;;;;5077850;28;20060;-85
2021/07/15 04:37:47;;;;;;;9.40;3.10;;;;;;;;;;5079224;28;20041;-85
2021/07/15 04:40:22;;;;;;;14.40;2.88;;;;;;;;;;5079938;28;20049;-87
2021/07/15 04:43:10;;;;;;;12.70;3.10;;;;;;;;;;5077585;28;20120;-86
2021/07/15 04:45:40;;;;;;;14.32;2.90;;;;;;;;;;5078007;28;20053;-86
2021/07/15 04:48:10;;;;;;;15.50;4.38;;;;;;;;;;5073838;28;20102;-86
2021/07/15 04:50:39;;;;;;;9.85;3.40;;;;;;;;;;5074090;28;20094;-85
2021/07/15 04:53:19;;;;;;;10.77;2.88;;;;;;;;;;5076891;28;20442;-85
2021/07/15 04:55:46;;;;;;;9.15;3.25;;;;;;;;;;5085497;28;20036;-85
2021/07/15 04:58:14;;;;;;;13.85;3.33;;;;;;;;;;5088893;28;20163;-86
2021/07/15 05:00:41;;;;;;;14.23;3.63;;;;;;;;;;5078633;28;20067;-85
2021/07/15 05:03:07;;;;;;;11.25;3.35;;;;;;;;;;5054779;28;20282;-85
2021/07/15 05:05:40;;;;;;;6.85;2.75;;;;;;;;;;5056451;28;20430;-85
2021/07/15 05:08:07;;;;;;;16.05;3.10;;;;;;;;;;5076699;28;20304;-85
2021/07/15 05:10:34;;;;;;;7.82;3.20;;;;;;;;;;5079360;28;20147;-85
2021/07/15 05:13:01;;;;;;;11.02;3.10;;;;;;;;;;5081814;28;20056;-86
2021/07/15 05:15:34;;;;;;;14.05;3.35;;;;;;;;;;5080063;28;20048;-85
2021/07/15 05:18:01;;;;;;;11.27;3.47;;;;;;;;;;5067907;28;20137;-85
2021/07/15 05:20:28;;;;;;;14.27;3.63;;;;;;;;;;5059589;28;20045;-85
2021/07/15 05:22:58;;;;;;;13.07;2.65;;;;;;;;;;5058066;28;20662;-86
2021/07/15 05:25:24;;;;;;;11.25;3.13;;;;;;;;;;5073636;28;20066;-84
2021/07/15 05:27:51;;;;;;;12.77;3.70;;;;;;;;;;5078334;28;20110;-86
2021/07/15 05:30:18;;;;;;;5.93;2.85;;;;;;;;;;5077285;28;20052;-86
2021/07/15 05:32:45;;;;;;;7.20;2.45;;;;;;;;;;5077659;28;20048;-86
2021/07/15 05:35:11;;;;;;;10.57;3.10;;;;;;;;;;5074616;28;20236;-86
2021/07/15 05:37:42;;;;;;;13.88;3.50;;;;;;;;;;5077115;28;20048;-85
2021/07/15 05:40:09;;;;;;;14.77;3.83;;;;;;;;;;5077400;28;20067;-85
2021/07/15 05:42:36;;;;;;;9.88;3.20;;;;;;;;;;5081745;28;20106;-86
2021/07/15 05:45:03;;;;;;;11.65;3.95;;;;;;;;;;5078407;28;20091;-85
2021/07/15 05:47:39;;;;;;;10.65;3.35;;;;;;;;;;5073483;28;20308;-85
2021/07/15 05:50:06;;;;;;;;;;;;;;;;;;5058382;28;20083;-85
2021/07/15 05:52:33;;;;;;;13.45;3.30;;;;;;;;;;5069244;28;20051;-86
2021/07/15 05:55:14;;;;;;;18.00;4.18;;;;;;;;;;5069638;28;20385;-86
2021/07/15 05:57:41;;;;;;;15.60;4.00;;;;;;;;;;5071962;28;20049;-84
2021/07/15 06:00:10;;;;;;;11.68;3.38;;;;;;;;;;5073929;28;20643;-85
2021/07/15 06:02:37;;;;;;;20.67;4.35;;;;;;;;;;5074526;28;20071;-86
2021/07/15 06:05:22;;;;;;;16.57;3.60;;;;;;;;;;5071388;28;20051;-84
2021/07/15 06:07:59;;;;;;;16.85;3.75;;;;;;;;;;5074080;28;20044;-85
2021/07/15 06:10:25;;;;;;;;;;;;;;;;;;5076216;28;20052;-86
2021/07/15 06:12:52;;;;;;;;;;;;;;;;;;5079555;28;19921;-86
2021/07/15 06:15:31;;;;;;;;;;;;;;;;;;5077585;28;19951;-87
2021/07/15 06:18:01;;;;;;;11.95;3.08;;;;;;;;;;5076518;28;19924;-85
2021/07/15 06:20:31;;;;;;;16.35;3.95;;;;;;;;;;5072594;28;20060;-85
2021/07/15 06:23:01;;;;;;;17.00;4.18;;;;;;;;;;5071366;28;20052;-86
2021/07/15 06:25:28;;;;;;;19.13;3.65;;;;;;;;;;5073452;28;20048;-86
2021/07/15 06:27:55;;;;;;;19.85;3.90;;;;;;;;;;5073810;28;20051;-85
2021/07/15 06:30:21;;;;;;;15.07;4.88;;;;;;;;;;5072876;28;20055;-85
2021/07/15 06:32:54;;;;;;;17.50;5.22;;;;;;;;;;5075466;28;20140;-85
2021/07/15 06:35:40;;;;;;;20.35;4.13;;;;;;;;;;5068372;28;20055;-85
2021/07/15 06:38:13;;;;;;;21.70;8.48;;;;;;;;;;5060321;28;20049;-85
2021/07/15 06:40:41;;;;;;;22.75;5.35;;;;;;;;;;5078123;28;20209;-87
2021/07/15 06:43:08;;;;;;;17.70;5.13;;;;;;;;;;5084277;28;20075;-84
2021/07/15 06:45:38;;;;;;;10.55;4.38;;;;;;;;;;5070991;28;20052;-85
2021/07/15 06:48:06;;;;;;;19.77;5.25;;;;;;;;;;5070612;28;20215;-85
2021/07/15 06:50:36;;;;;;;17.77;8.82;;;;;;;;;;5074790;28;20064;-85
2021/07/15 06:53:07;;;;;;;24.50;7.78;;;;;;;;;;5088578;28;20324;-85
2021/07/15 06:55:36;;;;;;;21.77;8.65;;;;;;;;;;5093898;28;20178;-85
2021/07/15 06:58:05;;;;;;;23.27;8.35;;;;;;;;;;5081574;28;20048;-87
2021/07/15 07:00:33;;;;;;;25.52;8.65;;;;;;;;;;5073318;28;20356;-88
2021/07/15 07:02:59;;;;;;;24.23;7.32;;;;;;;;;;5072578;28;20129;-87
2021/07/15 07:05:26;;;;;;;23.52;7.93;;;;;;;;;;5074538;28;20112;-87
2021/07/15 07:08:07;;;;;;;31.45;9.82;;;;;;;;;;5071741;28;20070;-87
2021/07/15 07:10:34;;;;;;;29.38;8.70;;;;;;;;;;5074346;28;20123;-87
2021/07/15 07:13:02;;;;;;;28.30;8.50;;;;;;;;;;5071726;28;20120;-88
2021/07/15 07:15:30;;;;;;;25.50;9.73;;;;;;;;;;5068563;28;20040;-87
2021/07/15 07:17:57;;;;;;;20.13;8.52;;;;;;;;;;5052506;28;20057;-87
2021/07/15 07:20:24;;;;;;;18.65;7.90;;;;;;;;;;5050811;28;20291;-87
2021/07/15 07:22:56;;;;;;;27.77;10.25;;;;;;;;;;5053325;28;20209;-88
2021/07/15 07:25:24;;;;;;;24.33;9.25;;;;;;;;;;5053666;28;20061;-87
2021/07/15 07:27:52;;;;;;;20.90;8.15;;;;;;;;;;5054393;28;20155;-88
2021/07/15 07:30:19;;;;;;;28.52;8.35;;;;;;;;;;5066600;28;20109;-87
2021/07/15 07:32:46;;;;;;;23.67;9.55;;;;;;;;;;5072885;28;20052;-87
2021/07/15 07:35:15;;;;;;;32.28;9.77;;;;;;;;;;5072060;28;20406;-89
2021/07/15 07:37:44;;;;;;;24.50;9.70;;;;;;;;;;5068444;28;20037;-86
2021/07/15 07:40:20;;;;;;;22.27;9.95;;;;;;;;;;5076353;28;20255;-88
2021/07/15 07:42:47;;;;;;;24.52;10.32;;;;;;;;;;5072471;28;20087;-87
2021/07/15 07:45:15;;;;;;;31.63;11.20;;;;;;;;;;5074939;28;20052;-88
2021/07/15 07:47:45;;;;;;;23.73;9.70;;;;;;;;;;5057050;28;20091;-89
2021/07/15 07:50:22;;;;;;;26.15;10.77;;;;;;;;;;5074333;28;20598;-89
2021/07/15 07:52:50;;;;;;;25.70;11.13;;;;;;;;;;5074694;28;20074;-88
2021/07/15 07:55:21;;;;;;;24.25;8.80;;;;;;;;;;5077342;28;20064;-88
2021/07/15 07:57:48;;;;;;;25.13;11.20;;;;;;;;;;5075553;28;20053;-88
2021/07/15 08:00:15;;;;;;;26.20;11.68;;;;;;;;;;5070984;28;20040;-88
2021/07/15 08:02:47;;;;;;;25.52;9.70;;;;;;;;;;5070698;28;20041;-87
2021/07/15 08:05:19;;;;;;;23.35;10.52;;;;;;;;;;5059624;28;20048;-87
2021/07/15 08:07:46;;;;;;;28.02;10.60;;;;;;;;;;5076686;28;20040;-87
2021/07/15 08:10:18;;;;;;;25.77;11.07;;;;;;;;;;5081525;28;20052;-86
2021/07/15 08:12:45;;;;;;;21.55;9.23;;;;;;;;;;5074711;28;20147;-87
2021/07/15 08:15:12;;;;;;;22.58;8.80;;;;;;;;;;5076424;28;20051;-87
2021/07/15 08:17:41;;;;;;;24.25;10.68;;;;;;;;;;5073184;28;20056;-86
2021/07/15 08:20:09;;;;;;;21.42;10.60;;;;;;;;;;5070459;28;20075;-85
2021/07/15 08:22:36;;;;;;;20.85;10.35;;;;;;;;;;5083454;28;20046;-87
2021/07/15 08:25:05;;;;;;;20.08;9.63;;;;;;;;;;5086001;28;20060;-87
2021/07/15 08:27:33;;;;;;;20.38;10.02;;;;;;;;;;5073746;28;20049;-86
2021/07/15 08:30:00;;;;;;;24.42;9.90;;;;;;;;;;5075561;28;20048;-88
2021/07/15 08:32:27;;;;;;;20.73;9.38;;;;;;;;;;5075033;28;20055;-88
2021/07/15 08:34:53;;;;;;;23.13;10.23;;;;;;;;;;5073017;28;20041;-86
2021/07/15 08:37:23;;;;;;;18.42;9.43;;;;;;;;;;5056217;28;20076;-86
2021/07/15 08:39:49;;;;;;;17.67;9.60;;;;;;;;;;5065458;28;20265;-85
2021/07/15 08:42:17;;;;;;;19.73;9.45;;;;;;;;;;5080992;28;20105;-86
2021/07/15 08:44:47;;;;;;;19.05;9.48;;;;;;;;;;5081223;28;20057;-87
2021/07/15 08:47:14;;;;;;;18.23;9.00;;;;;;;;;;5081695;28;20224;-85
2021/07/15 08:49:41;;;;;;;17.77;8.25;;;;;;;;;;5080265;28;20502;-84
2021/07/15 08:52:07;;;;;;;18.10;8.13;;;;;;;;;;5081071;28;20417;-85
2021/07/15 08:54:59;;;;;;;15.35;8.02;;;;;;;;;;5080257;28;20332;-85
2021/07/15 08:57:25;;;;;;;16.25;7.82;;;;;;;;;;5082863;28;20055;-85
2021/07/15 08:59:52;;;;;;;18.65;7.97;;;;;;;;;;5084953;28;20259;-85
2021/07/15 09:02:20;;;;;;;13.07;8.32;;;;;;;;;;5084656;28;20440;-85
2021/07/15 09:04:47;;;;;;;11.93;7.80;;;;;;;;;;5084656;28;20063;-85
2021/07/15 09:07:14;;;;;;;17.58;7.60;;;;;;;;;;5084263;28;20062;-85
2021/07/15 09:09:48;;;;;;;17.95;8.13;;;;;;;;;;5080493;28;20078;-86
2021/07/15 09:12:18;;;;;;;21.73;7.22;;;;;;;;;;5082869;28;20052;-85
2021/07/15 09:14:49;;;;;;;16.25;6.20;;;;;;;;;;5084509;28;20036;-85
2021/07/15 09:17:33;;;;;;;18.58;6.25;;;;;;;;;;5083111;28;20059;-85
2021/07/15 09:20:08;;;;;;;18.50;6.75;;;;;;;;;;5083563;28;20145;-85
2021/07/15 09:22:59;;;;;;;12.18;6.43;;;;;;;;;;5083618;28;20039;-84
2021/07/15 09:25:49;;;;;;;13.15;6.30;;;;;;;;;;5074039;28;20063;-86
2021/07/15 09:28:32;;;;;;;13.10;6.65;;;;;;;;;;5085469;28;20049;-85
2021/07/15 09:31:12;;;;;;;12.70;6.72;;;;;;;;;;5074327;28;20044;-88
2021/07/15 09:33:39;;;;;;;13.50;6.30;;;;;;;;;;5070633;28;20095;-89
2021/07/15 09:36:17;;;;;;;14.77;6.35;;;;;;;;;;5081476;28;20343;-85
2021/07/15 09:38:48;;;;;;;11.68;5.65;;;;;;;;;;5052623;28;20075;-85
2021/07/15 09:41:15;;;;;;;13.00;6.20;;;;;;;;;;5053769;28;20060;-85
2021/07/15 09:43:43;;;;;;;18.75;7.30;;;;;;;;;;5051487;28;20084;-85
2021/07/15 09:46:12;;;;;;;15.70;6.38;;;;;;;;;;5050404;28;20467;-86
2021/07/15 09:48:41;;;;;;;12.63;6.65;;;;;;;;;;5051005;28;20595;-85
2021/07/15 09:51:08;;;;;;;14.73;7.00;;;;;;;;;;5051769;28;20067;-85
2021/07/15 09:53:40;;;;;;;14.13;5.93;;;;;;;;;;5051211;28;20083;-85
2021/07/15 09:56:08;;;;;;;13.73;6.72;;;;;;;;;;5054382;28;20194;-84
2021/07/15 09:58:36;;;;;;;12.60;6.82;;;;;;;;;;5056981;28;20071;-85
2021/07/15 10:01:05;;;;;;;14.30;7.78;;;;;;;;;;5056285;28;20044;-85
2021/07/15 10:03:40;;;;;;;13.10;7.50;;;;;;;;;;5063665;28;20071;-86
2021/07/15 10:06:08;;;;;;;12.40;6.85;;;;;;;;;;5071462;28;20052;-86
2021/07/15 10:08:39;;;;;;;15.68;6.20;;;;;;;;;;5074622;28;20110;-86
2021/07/15 10:11:13;;;;;;;14.57;6.72;;;;;;;;;;5074258;28;20049;-86
2021/07/15 10:13:41;;;;;;;15.77;6.90;;;;;;;;;;5075533;28;20223;-85
2021/07/15 10:16:09;;;;;;;10.82;5.70;;;;;;;;;;5075992;28;20044;-86
2021/07/15 10:18:38;;;;;;;13.20;6.38;;;;;;;;;;5075592;28;20125;-85
2021/07/15 10:21:08;;;;;;;16.17;7.70;;;;;;;;;;5069070;28;20045;-86
2021/07/15 10:23:44;;;;;;;11.38;6.90;;;;;;;;;;5071266;28;20517;-85
2021/07/15 10:26:28;;;;;;;13.15;6.10;;;;;;;;;;5071576;28;20593;-85
2021/07/15 10:28:55;;;;;;;11.77;6.45;;;;;;;;;;5073692;28;20064;-87
2021/07/15 10:31:23;;;;;;;11.75;6.68;;;;;;;;;;5070570;28;20049;-85
2021/07/15 10:33:51;;;;;;;17.50;7.15;;;;;;;;;;5069361;28;20263;-85
2021/07/15 10:36:24;;;;;;;14.68;7.28;;;;;;;;;;5068093;28;20112;-86
2021/07/15 10:38:53;;;;;;;10.35;6.70;;;;;;;;;;5066340;28;20098;-84
2021/07/15 10:41:21;;;;;;;11.75;6.82;;;;;;;;;;5068649;28;20156;-85
2021/07/15 10:43:49;;;;;;;12.73;6.90;;;;;;;;;;5068043;28;20176;-86
2021/07/15 10:46:16;;;;;;;9.48;6.78;;;;;;;;;;5071871;28;20212;-85
2021/07/15 10:48:43;;;;;;;14.60;7.72;;;;;;;;;;5071444;28;20300;-86
2021/07/15 10:51:10;;;;;;;14.90;7.35;;;;;;;;;;5068548;28;20060;-86
2021/07/15 10:53:39;;;;;;;17.35;8.48;;;;;;;;;;5050087;28;20273;-86
2021/07/15 10:56:06;;;;;;;16.70;9.85;;;;;;;;;;5057115;28;20272;-86
2021/07/15 10:59:06;;;;;;;15.93;10.27;;;;;;;;;;5072214;28;20043;-86
2021/07/15 11:01:51;;;;;;;15.68;9.82;;;;;;;;;;5060453;28;20044;-85
2021/07/15 11:04:24;;;;;;;21.08;10.93;;;;;;;;;;5069910;28;20570;-85
2021/07/15 11:06:52;;;;;;;20.25;11.40;;;;;;;;;;5047104;28;20099;-85
2021/07/15 11:09:22;;;;;;;17.48;12.18;;;;;;;;;;5051681;28;20048;-86
2021/07/15 11:11:58;;;;;;;18.25;11.40;;;;;;;;;;5054225;28;20048;-85
2021/07/15 11:14:35;;;;;;;21.88;13.63;;;;;;;;;;5072012;28;20467;-85
2021/07/15 11:17:02;;;;;;;18.63;12.80;;;;;;;;;;5074200;28;20032;-85
2021/07/15 11:19:48;;;;;;;19.73;12.98;;;;;;;;;;5071801;28;20334;-85
2021/07/15 11:22:32;;;;;;;29.63;14.68;;;;;;;;;;5072786;28;20052;-85
2021/07/15 11:25:03;;;;;;;31.65;15.52;;;;;;;;;;5069666;28;20088;-86
2021/07/15 11:27:33;;;;;;;32.67;16.40;;;;;;;;;;5068962;28;20443;-85
2021/07/15 11:30:00;;;;;;;26.98;15.40;;;;;;;;;;5065637;28;20348;-85
2021/07/15 11:32:27;;;;;;;29.75;16.42;;;;;;;;;;5072154;28;20048;-86
2021/07/15 11:34:55;;;;;;;23.13;15.82;;;;;;;;;;5072149;28;20126;-85
2021/07/15 11:37:25;;;;;;;24.60;15.23;;;;;;;;;;5074664;28;20083;-86
2021/07/15 11:39:55;;;;;;;20.75;12.75;;;;;;;;;;5074057;28;20049;-87
2021/07/15 11:42:26;;;;;;;16.08;10.15;;;;;;;;;;5077821;28;20210;-88
2021/07/15 11:44:57;;;;;;;14.35;10.93;;;;;;;;;;5077336;28;20048;-87
2021/07/15 11:47:42;;;;;;;23.92;12.18;;;;;;;;;;5080529;28;20036;-88
2021/07/15 11:50:31;;;;;;;24.30;12.07;;;;;;;;;;5067403;28;20048;-88
2021/07/15 11:53:14;;;;;;;24.70;12.05;;;;;;;;;;5061985;28;20056;-89
2021/07/15 11:55:40;;;;;;;20.60;12.43;;;;;;;;;;5059412;28;20045;-88
2021/07/15 11:58:29;;;;;;;20.40;13.13;;;;;;;;;;5069673;28;20195;-88
2021/07/15 12:01:16;;;;;;;20.20;13.15;;;;;;;;;;5070796;28;20112;-90
2021/07/15 12:03:59;;;;;;;22.92;12.70;;;;;;;;;;5073335;28;20421;-88
2021/07/15 12:06:27;;;;;;;18.17;12.70;;;;;;;;;;5074042;28;20274;-89
2021/07/15 12:09:02;;;;;;;22.80;13.95;;;;;;;;;;5073089;28;20241;-88
2021/07/15 12:11:29;;;;;;;18.92;12.25;;;;;;;;;;5072918;28;20041;-87
2021/07/15 12:14:00;;;;;;;23.25;12.85;;;;;;;;;;5071717;28;20074;-88
2021/07/15 12:16:28;;;;;;;20.45;12.65;;;;;;;;;;5069412;28;20109;-87
2021/07/15 12:19:00;;;;;;;25.33;13.27;;;;;;;;;;5071886;28;20079;-88
2021/07/15 12:21:27;;;;;;;18.15;12.27;;;;;;;;;;5071357;28;20094;-87
2021/07/15 12:23:54;;;;;;;21.02;12.70;;;;;;;;;;5064863;28;20052;-88
2021/07/15 12:26:21;;;;;;;27.30;13.25;;;;;;;;;;5066369;28;20053;-88
2021/07/15 12:28:48;;;;;;;24.42;13.50;;;;;;;;;;5068917;28;20044;-88
2021/07/15 12:31:20;;;;;;;28.67;13.27;;;;;;;;;;5066043;28;20525;-87
2021/07/15 12:33:48;;;;;;;15.75;12.25;;;;;;;;;;5067716;28;20112;-87
2021/07/15 12:36:34;;;;;;;18.67;11.98;;;;;;;;;;5073524;28;20233;-88
2021/07/15 12:39:04;;;;;;;16.10;11.43;;;;;;;;;;5056993;28;20379;-88
2021/07/15 12:41:32;;;;;;;23.10;13.98;;;;;;;;;;5048995;28;20206;-87
2021/07/15 12:44:14;;;;;;;18.65;12.35;;;;;;;;;;5053759;28;20088;-87
2021/07/15 12:46:42;;;;;;;18.05;12.13;;;;;;;;;;5064770;28;20314;-88
2021/07/15 12:49:23;;;;;;;;;;;;;;;;;;5094450;28;20113;-88
2021/07/15 12:51:51;;;;;;;19.10;13.05;;;;;;;;;;5081046;28;20146;-87
2021/07/15 12:54:48;;;;;;;17.83;12.75;;;;;;;;;;5077212;28;20463;-88
2021/07/15 12:57:24;;;;;;;23.00;16.85;;;;;;;;;;5075934;28;20258;-88
2021/07/15 12:59:51;;;;;;;20.17;13.60;;;;;;;;;;5072629;28;20048;-88
2021/07/15 13:02:28;;;;;;;18.92;12.85;;;;;;;;;;5072871;28;20041;-87
2021/07/15 13:05:20;;;;;;;24.55;15.55;;;;;;;;;;5055164;28;20052;-88
2021/07/15 13:07:47;;;;;;;30.33;16.58;;;;;;;;;;5053677;28;20045;-88
2021/07/15 13:15:39;;;;;;;20.90;14.25;;;;;;;;;;5051690;28;20107;-88
2021/07/15 13:18:11;;;;;;;18.35;12.73;;;;;;;;;;5048270;28;20544;-88
2021/07/15 13:20:45;;;;;;;14.50;10.82;;;;;;;;;;5051108;28;20056;-88
2021/07/15 13:23:12;;;;;;;13.85;9.98;;;;;;;;;;5050389;28;20052;-87
2021/07/15 13:25:42;;;;;;;19.55;11.60;;;;;;;;;;5046375;28;20049;-87
2021/07/15 13:28:10;;;;;;;19.25;11.80;;;;;;;;;;5044319;28;20077;-88
2021/07/15 13:30:37;;;;;;;16.25;10.60;;;;;;;;;;5053696;28;20044;-88
2021/07/15 13:33:13;;;;;;;20.73;11.80;;;;;;;;;;5059824;28;20075;-87
2021/07/15 13:35:45;;;;;;;20.88;12.95;;;;;;;;;;5058549;28;20071;-88
2021/07/15 13:38:13;;;;;;;24.67;11.40;;;;;;;;;;5050652;28;20061;-87
2021/07/15 13:40:41;;;;;;;17.30;11.25;;;;;;;;;;5070675;28;20196;-88
2021/07/15 13:43:10;;;;;;;21.38;11.48;;;;;;;;;;5073387;28;20052;-88
2021/07/15 13:45:39;;;;;;;16.23;10.27;;;;;;;;;;5071998;28;20059;-89
2021/07/15 13:48:09;;;;;;;23.05;12.18;;;;;;;;;;5072904;28;20156;-88
2021/07/15 13:50:36;;;;;;;19.63;11.88;;;;;;;;;;5072627;28;20052;-88
2021/07/15 13:53:04;;;;;;;16.52;10.25;;;;;;;;;;5077844;28;20412;-90
2021/07/15 13:55:30;;;;;;;18.55;13.07;;;;;;;;;;5079699;28;20064;-88
2021/07/15 13:57:58;;;;;;;23.15;14.18;;;;;;;;;;5076790;28;20336;-87
2021/07/15 14:00:30;;;;;;;18.67;11.52;;;;;;;;;;5069240;28;20037;-88
2021/07/15 14:02:59;;;;;;;16.25;11.27;;;;;;;;;;5062617;28;20058;-87
2021/07/15 14:05:34;;;;;;;17.40;13.20;;;;;;;;;;5078187;28;20087;-87
2021/07/15 14:08:06;;;;;;;25.00;13.68;;;;;;;;;;5083455;28;20106;-89
2021/07/15 14:10:35;;;;;;;21.13;14.50;;;;;;;;;;5075776;28;20105;-88
2021/07/15 14:13:05;;;;;;;22.35;14.18;;;;;;;;;;5076895;28;20276;-88
2021/07/15 14:15:40;;;;;;;18.58;12.82;;;;;;;;;;5073455;28;20048;-88
2021/07/15 14:18:15;;;;;;;23.33;13.40;;;;;;;;;;5072360;28;20045;-89
2021/07/15 14:21:17;;;;;;;17.63;11.82;;;;;;;;;;5075718;28;20040;-89
2021/07/15 14:23:48;;;;;;;23.60;14.05;;;;;;;;;;5024399;28;20116;-88
2021/07/15 14:26:16;;;;;;;26.58;13.43;;;;;;;;;;5077490;28;20056;-89
2021/07/15 14:28:45;;;;;;;20.00;11.10;;;;;;;;;;5080316;28;20048;-88
2021/07/15 14:31:12;;;;;;;21.20;9.88;;;;;;;;;;5058014;28;20041;-89
2021/07/15 14:33:39;;;;;;;28.30;9.82;;;;;;;;;;5069979;28;20282;-88
2021/07/15 14:36:06;;;;;;;26.92;9.48;;;;;;;;;;5070096;28;20049;-87
2021/07/15 14:38:39;;;;;;;21.02;8.13;;;;;;;;;;5071810;28;20104;-87
2021/07/15 14:41:08;;;;;;;24.33;8.40;;;;;;;;;;5049439;28;20049;-88
2021/07/15 14:57:43;;;;;;;26.30;12.07;;;;;;;;;;4855699;29;20041;-88
2021/07/15 15:29:11;;;;;;;;;;;;;;;;;;;;;
2021/07/15 15:31:50;;;;;;;24.88;10.43;;;;;;;;;;5069203;28;20248;-87
2021/07/15 15:35:06;;;;;;;19.25;9.27;;;;;;;;;;5060128;28;20040;-88
2021/07/15 15:38:18;;;;;;;26.23;9.88;;;;;;;;;;5054161;28;20047;-86
2021/07/15 15:41:39;;;;;;;25.17;8.77;;;;;;;;;;4944077;28;20094;-87
2021/07/15 15:55:30;;;;;;;15.07;6.68;;;;;;;;;;4954534;28;20051;-88